St.peterburg Pilot — UAMI — position and weather

sailwx.info

Track history (hours):
 
Tides and Currents Weather Stations Pressure Air Temp Water Temp Dewpoint Dewpoint Depression Visibility Wind Speed Wind Dir Waves Ship Positions

St.peterburg Pilot

Last reported at 2017-Feb-28 07:33 UTC. Time now 2017-Feb-28 12:48 UTC.
Position N 59°57' E 029°51'.

Length 59 m; draft 3.6 m.

Type: Pilot. MMSI: 273436530.

Date/timePositionNaut miles runAvg speedWind from/ knotsBaromVisibWave heightAir tempDewpointWater temp
2017-Feb-28 07:33N 59°57' E 029°51'9 9.5
2017-Feb-28 06:34N 59°54' E 030°09'2 2.0
2017-Feb-28 05:33N 59°53' E 030°13'0 0.0
2017-Feb-28 04:33N 59°53' E 030°13'0 0.0
2017-Feb-28 03:33N 59°53' E 030°13'0 0.0
2017-Feb-28 02:33N 59°53' E 030°13'0 0.0
2017-Feb-28 01:33N 59°53' E 030°13'0 0.0
2017-Feb-28 00:33N 59°53' E 030°13'0 0.0
2017-Feb-27 23:33N 59°53' E 030°13'0 0.0
2017-Feb-27 22:33N 59°53' E 030°13'0 0.0
2017-Feb-27 21:33N 59°53' E 030°13'0 0.0
2017-Feb-27 20:33N 59°53' E 030°13'0 0.0
2017-Feb-27 19:33N 59°53' E 030°13'0 0.0
2017-Feb-27 18:34N 59°53' E 030°13'7 7.0
2017-Feb-27 17:33N 59°55' E 029°59'9 8.2
2017-Feb-27 16:27N 59°59' E 029°43'0 0.1
2017-Feb-27 15:33N 59°59' E 029°42'0 0.0
2017-Feb-27 14:33N 59°59' E 029°42'0 0.0
2017-Feb-27 13:33N 59°59' E 029°42'0 0.0
2017-Feb-27 10:33N 59°59' E 029°43'1 0.5
2017-Feb-27 08:24N 60°00' E 029°43'0 0.0
2017-Feb-27 07:31N 60°00' E 029°43'0 0.0
2017-Feb-27 06:18N 60°00' E 029°43'0 0.0
2017-Feb-27 05:24N 60°00' E 029°43'0 0.0
2017-Feb-27 01:26N 60°00' E 029°43'0 0.0
2017-Feb-27 00:32N 60°00' E 029°43'0 0.0
2017-Feb-26 23:30N 60°00' E 029°43'0 0.0
2017-Feb-26 22:32N 60°00' E 029°43'0 0.0
2017-Feb-26 21:29N 60°00' E 029°43'0 0.0
2017-Feb-26 20:29N 60°00' E 029°43'0 0.0
2017-Feb-26 19:33N 60°00' E 029°43'0 0.0
2017-Feb-26 18:27N 60°00' E 029°43'0 0.0
2017-Feb-26 17:33N 60°00' E 029°43'0 0.0
2017-Feb-26 16:29N 60°00' E 029°43'0 0.0
2017-Feb-26 15:31N 60°00' E 029°43'0 0.0
2017-Feb-26 14:33N 60°00' E 029°43'0 0.0
2017-Feb-26 13:22N 60°00' E 029°43'0 0.0
2017-Feb-26 09:07N 60°00' E 029°43'0 0.0
2017-Feb-26 06:14N 60°00' E 029°43'0 0.0
2017-Feb-26 00:28N 60°00' E 029°43'0 0.0
2017-Feb-25 23:04N 60°00' E 029°43'0 0.0
2017-Feb-25 22:24N 60°00' E 029°43'0 0.0
2017-Feb-25 21:25N 60°00' E 029°43'0 0.0
2017-Feb-25 16:27N 60°00' E 029°43'0 0.0
2017-Feb-25 15:17N 60°00' E 029°43'0 0.0
2017-Feb-25 14:17N 60°00' E 029°43'0 0.0
2017-Feb-25 13:33N 60°00' E 029°43'0 0.0
2017-Feb-25 12:08N 60°00' E 029°43'0 0.0
2017-Feb-25 09:13N 60°00' E 029°43'0 0.0
2017-Feb-25 08:29N 60°00' E 029°43'0 0.0
2017-Feb-25 06:27N 60°00' E 029°43'0 0.0
2017-Feb-25 02:26N 60°00' E 029°43'0 0.0
2017-Feb-25 01:23N 60°00' E 029°43'0 0.0
2017-Feb-24 23:30N 60°00' E 029°43'0 0.0
2017-Feb-24 22:24N 60°00' E 029°43'0 0.0
2017-Feb-24 21:33N 60°00' E 029°43'0 0.0
2017-Feb-24 20:28N 60°00' E 029°43'0 0.0
2017-Feb-24 19:30N 60°00' E 029°43'0 0.0
2017-Feb-24 18:30N 60°00' E 029°43'0 0.0
2017-Feb-24 17:30N 60°00' E 029°43'0 0.0
2017-Feb-24 13:28N 60°00' E 029°43'0 0.0
2017-Feb-24 10:04N 60°00' E 029°43'0 0.0
2017-Feb-24 09:32N 60°00' E 029°43'0 0.0
2017-Feb-24 08:29N 60°00' E 029°43'0 0.0
2017-Feb-24 07:28N 60°00' E 029°43'0 0.0
2017-Feb-24 06:31N 60°00' E 029°43'0 0.0
2017-Feb-24 05:30N 60°00' E 029°43'0 0.0
2017-Feb-24 04:32N 60°00' E 029°43'0 0.0
2017-Feb-24 03:31N 60°00' E 029°43'0 0.0
2017-Feb-24 02:32N 60°00' E 029°43'0 0.0
2017-Feb-24 01:32N 60°00' E 029°43'0 0.0
2017-Feb-24 00:28N 60°00' E 029°43'0 0.0
2017-Feb-23 23:32N 60°00' E 029°43'0 0.0
2017-Feb-23 22:29N 60°00' E 029°43'0 0.0
2017-Feb-23 21:32N 60°00' E 029°43'0 0.0
2017-Feb-23 20:29N 60°00' E 029°43'0 0.0
2017-Feb-23 19:33N 60°00' E 029°43'0 0.0
2017-Feb-23 18:33N 60°00' E 029°43'0 0.0
2017-Feb-23 17:31N 60°00' E 029°43'0 0.0
2017-Feb-23 14:21N 60°00' E 029°43'0 0.0
2017-Feb-23 13:21N 60°00' E 029°43'0 0.0
2017-Feb-23 08:14N 60°00' E 029°43'0 0.0
2017-Feb-23 07:33N 60°00' E 029°43'0 0.0
2017-Feb-23 05:31N 60°00' E 029°43'0 0.0
2017-Feb-23 03:23N 60°00' E 029°43'0 0.0
2017-Feb-23 00:31N 60°00' E 029°43'0 0.0
2017-Feb-22 23:29N 60°00' E 029°43'0 0.0
2017-Feb-22 22:29N 60°00' E 029°43'0 0.0
2017-Feb-22 21:33N 60°00' E 029°43'0 0.0
2017-Feb-22 16:28N 60°00' E 029°43'0 0.0
2017-Feb-22 15:33N 60°00' E 029°43'0 0.0
2017-Feb-22 14:31N 60°00' E 029°43'0 0.0
2017-Feb-22 13:33N 60°00' E 029°43'0 0.0
2017-Feb-22 09:06N 60°00' E 029°43'0 0.0
2017-Feb-22 08:32N 60°00' E 029°43'0 0.0
2017-Feb-22 07:32N 60°00' E 029°43'0 0.0
2017-Feb-22 06:33N 60°00' E 029°43'0 0.0
2017-Feb-22 05:33N 60°00' E 029°43'0 0.0
2017-Feb-22 03:25N 60°00' E 029°43'0 0.0
2017-Feb-22 02:29N 60°00' E 029°43'0 0.0
2017-Feb-22 01:31N 60°00' E 029°43'0 0.0
2017-Feb-22 00:32N 60°00' E 029°43'0 0.0
2017-Feb-21 23:32N 60°00' E 029°43'0 0.0
2017-Feb-21 22:30N 60°00' E 029°43'0 0.0
2017-Feb-21 21:30N 60°00' E 029°43'0 0.0
2017-Feb-21 20:33N 60°00' E 029°43'0 0.0
2017-Feb-21 19:33N 60°00' E 029°43'0 0.0
2017-Feb-21 18:28N 60°00' E 029°43'0 0.0
2017-Feb-21 17:27N 60°00' E 029°43'0 0.0
2017-Feb-21 16:32N 60°00' E 029°43'0 0.0
2017-Feb-21 15:31N 60°00' E 029°43'0 0.0
2017-Feb-21 14:32N 60°00' E 029°43'0 0.0
2017-Feb-21 13:29N 60°00' E 029°43'0 0.0
2017-Feb-21 10:24N 60°00' E 029°43'0 0.0
2017-Feb-21 09:29N 60°00' E 029°43'0 0.0
2017-Feb-21 08:09N 60°00' E 029°43'0 0.0
2017-Feb-21 07:32N 60°00' E 029°43'0 0.0
2017-Feb-21 06:31N 60°00' E 029°43'0 0.0
2017-Feb-21 05:31N 60°00' E 029°43'0 0.0
2017-Feb-20 23:18N 60°00' E 029°43'0 0.0
2017-Feb-20 22:27N 60°00' E 029°43'0 0.0
2017-Feb-20 21:33N 60°00' E 029°43'0 0.0
2017-Feb-20 20:28N 60°00' E 029°43'0 0.0
2017-Feb-20 19:33N 60°00' E 029°43'0 0.0
2017-Feb-20 18:28N 60°00' E 029°43'0 0.0
2017-Feb-20 17:33N 60°00' E 029°43'0 0.0
2017-Feb-20 16:29N 60°00' E 029°43'0 0.0
2017-Feb-20 15:33N 60°00' E 029°43'0 0.0
2017-Feb-20 14:30N 60°00' E 029°43'0 0.0
2017-Feb-20 13:32N 60°00' E 029°43'0 0.0
2017-Feb-20 10:03N 60°00' E 029°43'0 0.0
2017-Feb-20 08:26N 60°00' E 029°43'0 0.0
2017-Feb-20 07:33N 60°00' E 029°43'0 0.0
2017-Feb-20 06:28N 60°00' E 029°43'0 0.0
2017-Feb-20 05:14N 60°00' E 029°43'0 0.0
2017-Feb-20 04:30N 60°00' E 029°43'0 0.0
2017-Feb-20 03:33N 60°00' E 029°43'0 0.0
2017-Feb-19 07:17N 60°00' E 029°43'0 0.0
2017-Feb-19 06:27N 60°00' E 029°43'0 0.0
2017-Feb-19 05:32N 60°00' E 029°43'0 0.0
2017-Feb-18 22:29N 60°00' E 029°43'0 0.0
2017-Feb-18 21:07N 60°00' E 029°43'0 0.0
2017-Feb-18 20:29N 60°00' E 029°43'0 0.0
2017-Feb-18 18:29N 60°00' E 029°43'0 0.0
2017-Feb-18 17:33N 60°00' E 029°43'0 0.0
2017-Feb-18 16:29N 60°00' E 029°43'0 0.0
2017-Feb-18 15:33N 60°00' E 029°43'0 0.0
2017-Feb-18 14:29N 60°00' E 029°43'0 0.0
2017-Feb-18 13:33N 60°00' E 029°43'0 0.0
2017-Feb-18 12:21N 60°00' E 029°43'0 0.0
2017-Feb-18 11:31N 60°00' E 029°43'0 0.0
2017-Feb-18 08:29N 60°00' E 029°43'  
Track history (hours):
 
Tides and Currents Weather Stations Pressure Air Temp Water Temp Dewpoint Dewpoint Depression Visibility Wind Speed Wind Dir Waves Ship Positions

St.peterburg Pilot

Last reported at 2017-Feb-28 07:33 UTC. Time now 2017-Feb-28 12:48 UTC.
Position N 59°57' E 029°51'.

Length 59 m; draft 3.6 m.

Type: Pilot. MMSI: 273436530.

Date/timePositionNaut miles runAvg speedWind from/ knotsBaromVisibWave heightAir tempDewpointWater temp
2017-Feb-28 07:33N 59°57' E 029°51'9 9.5
2017-Feb-28 06:34N 59°54' E 030°09'2 2.0
2017-Feb-28 05:33N 59°53' E 030°13'0 0.0
2017-Feb-28 04:33N 59°53' E 030°13'0 0.0
2017-Feb-28 03:33N 59°53' E 030°13'0 0.0
2017-Feb-28 02:33N 59°53' E 030°13'0 0.0
2017-Feb-28 01:33N 59°53' E 030°13'0 0.0
2017-Feb-28 00:33N 59°53' E 030°13'0 0.0
2017-Feb-27 23:33N 59°53' E 030°13'0 0.0
2017-Feb-27 22:33N 59°53' E 030°13'0 0.0
2017-Feb-27 21:33N 59°53' E 030°13'0 0.0
2017-Feb-27 20:33N 59°53' E 030°13'0 0.0
2017-Feb-27 19:33N 59°53' E 030°13'0 0.0
2017-Feb-27 18:34N 59°53' E 030°13'7 7.0
2017-Feb-27 17:33N 59°55' E 029°59'9 8.2
2017-Feb-27 16:27N 59°59' E 029°43'0 0.1
2017-Feb-27 15:33N 59°59' E 029°42'0 0.0
2017-Feb-27 14:33N 59°59' E 029°42'0 0.0
2017-Feb-27 13:33N 59°59' E 029°42'0 0.0
2017-Feb-27 10:33N 59°59' E 029°43'1 0.5
2017-Feb-27 08:24N 60°00' E 029°43'0 0.0
2017-Feb-27 07:31N 60°00' E 029°43'0 0.0
2017-Feb-27 06:18N 60°00' E 029°43'0 0.0
2017-Feb-27 05:24N 60°00' E 029°43'0 0.0
2017-Feb-27 01:26N 60°00' E 029°43'0 0.0
2017-Feb-27 00:32N 60°00' E 029°43'0 0.0
2017-Feb-26 23:30N 60°00' E 029°43'0 0.0
2017-Feb-26 22:32N 60°00' E 029°43'0 0.0
2017-Feb-26 21:29N 60°00' E 029°43'0 0.0
2017-Feb-26 20:29N 60°00' E 029°43'0 0.0
2017-Feb-26 19:33N 60°00' E 029°43'0 0.0
2017-Feb-26 18:27N 60°00' E 029°43'0 0.0
2017-Feb-26 17:33N 60°00' E 029°43'0 0.0
2017-Feb-26 16:29N 60°00' E 029°43'0 0.0
2017-Feb-26 15:31N 60°00' E 029°43'0 0.0
2017-Feb-26 14:33N 60°00' E 029°43'0 0.0
2017-Feb-26 13:22N 60°00' E 029°43'0 0.0
2017-Feb-26 09:07N 60°00' E 029°43'0 0.0
2017-Feb-26 06:14N 60°00' E 029°43'0 0.0
2017-Feb-26 00:28N 60°00' E 029°43'0 0.0
2017-Feb-25 23:04N 60°00' E 029°43'0 0.0
2017-Feb-25 22:24N 60°00' E 029°43'0 0.0
2017-Feb-25 21:25N 60°00' E 029°43'0 0.0
2017-Feb-25 16:27N 60°00' E 029°43'0 0.0
2017-Feb-25 15:17N 60°00' E 029°43'0 0.0
2017-Feb-25 14:17N 60°00' E 029°43'0 0.0
2017-Feb-25 13:33N 60°00' E 029°43'0 0.0
2017-Feb-25 12:08N 60°00' E 029°43'0 0.0
2017-Feb-25 09:13N 60°00' E 029°43'0 0.0
2017-Feb-25 08:29N 60°00' E 029°43'0 0.0
2017-Feb-25 06:27N 60°00' E 029°43'0 0.0
2017-Feb-25 02:26N 60°00' E 029°43'0 0.0
2017-Feb-25 01:23N 60°00' E 029°43'0 0.0
2017-Feb-24 23:30N 60°00' E 029°43'0 0.0
2017-Feb-24 22:24N 60°00' E 029°43'0 0.0
2017-Feb-24 21:33N 60°00' E 029°43'0 0.0
2017-Feb-24 20:28N 60°00' E 029°43'0 0.0
2017-Feb-24 19:30N 60°00' E 029°43'0 0.0
2017-Feb-24 18:30N 60°00' E 029°43'0 0.0
2017-Feb-24 17:30N 60°00' E 029°43'0 0.0
2017-Feb-24 13:28N 60°00' E 029°43'0 0.0
2017-Feb-24 10:04N 60°00' E 029°43'0 0.0
2017-Feb-24 09:32N 60°00' E 029°43'0 0.0
2017-Feb-24 08:29N 60°00' E 029°43'0 0.0
2017-Feb-24 07:28N 60°00' E 029°43'0 0.0
2017-Feb-24 06:31N 60°00' E 029°43'0 0.0
2017-Feb-24 05:30N 60°00' E 029°43'0 0.0
2017-Feb-24 04:32N 60°00' E 029°43'0 0.0
2017-Feb-24 03:31N 60°00' E 029°43'0 0.0
2017-Feb-24 02:32N 60°00' E 029°43'0 0.0
2017-Feb-24 01:32N 60°00' E 029°43'0 0.0
2017-Feb-24 00:28N 60°00' E 029°43'0 0.0
2017-Feb-23 23:32N 60°00' E 029°43'0 0.0
2017-Feb-23 22:29N 60°00' E 029°43'0 0.0
2017-Feb-23 21:32N 60°00' E 029°43'0 0.0
2017-Feb-23 20:29N 60°00' E 029°43'0 0.0
2017-Feb-23 19:33N 60°00' E 029°43'0 0.0
2017-Feb-23 18:33N 60°00' E 029°43'0 0.0
2017-Feb-23 17:31N 60°00' E 029°43'0 0.0
2017-Feb-23 14:21N 60°00' E 029°43'0 0.0
2017-Feb-23 13:21N 60°00' E 029°43'0 0.0
2017-Feb-23 08:14N 60°00' E 029°43'0 0.0
2017-Feb-23 07:33N 60°00' E 029°43'0 0.0
2017-Feb-23 05:31N 60°00' E 029°43'0 0.0
2017-Feb-23 03:23N 60°00' E 029°43'0 0.0
2017-Feb-23 00:31N 60°00' E 029°43'0 0.0
2017-Feb-22 23:29N 60°00' E 029°43'0 0.0
2017-Feb-22 22:29N 60°00' E 029°43'0 0.0
2017-Feb-22 21:33N 60°00' E 029°43'0 0.0
2017-Feb-22 16:28N 60°00' E 029°43'0 0.0
2017-Feb-22 15:33N 60°00' E 029°43'0 0.0
2017-Feb-22 14:31N 60°00' E 029°43'0 0.0
2017-Feb-22 13:33N 60°00' E 029°43'0 0.0
2017-Feb-22 09:06N 60°00' E 029°43'0 0.0
2017-Feb-22 08:32N 60°00' E 029°43'0 0.0
2017-Feb-22 07:32N 60°00' E 029°43'0 0.0
2017-Feb-22 06:33N 60°00' E 029°43'0 0.0
2017-Feb-22 05:33N 60°00' E 029°43'0 0.0
2017-Feb-22 03:25N 60°00' E 029°43'0 0.0
2017-Feb-22 02:29N 60°00' E 029°43'0 0.0
2017-Feb-22 01:31N 60°00' E 029°43'0 0.0
2017-Feb-22 00:32N 60°00' E 029°43'0 0.0
2017-Feb-21 23:32N 60°00' E 029°43'0 0.0
2017-Feb-21 22:30N 60°00' E 029°43'0 0.0
2017-Feb-21 21:30N 60°00' E 029°43'0 0.0
2017-Feb-21 20:33N 60°00' E 029°43'0 0.0
2017-Feb-21 19:33N 60°00' E 029°43'0 0.0
2017-Feb-21 18:28N 60°00' E 029°43'0 0.0
2017-Feb-21 17:27N 60°00' E 029°43'0 0.0
2017-Feb-21 16:32N 60°00' E 029°43'0 0.0
2017-Feb-21 15:31N 60°00' E 029°43'0 0.0
2017-Feb-21 14:32N 60°00' E 029°43'0 0.0
2017-Feb-21 13:29N 60°00' E 029°43'0 0.0
2017-Feb-21 10:24N 60°00' E 029°43'0 0.0
2017-Feb-21 09:29N 60°00' E 029°43'0 0.0
2017-Feb-21 08:09N 60°00' E 029°43'0 0.0
2017-Feb-21 07:32N 60°00' E 029°43'0 0.0
2017-Feb-21 06:31N 60°00' E 029°43'0 0.0
2017-Feb-21 05:31N 60°00' E 029°43'0 0.0
2017-Feb-20 23:18N 60°00' E 029°43'0 0.0
2017-Feb-20 22:27N 60°00' E 029°43'0 0.0
2017-Feb-20 21:33N 60°00' E 029°43'0 0.0
2017-Feb-20 20:28N 60°00' E 029°43'0 0.0
2017-Feb-20 19:33N 60°00' E 029°43'0 0.0
2017-Feb-20 18:28N 60°00' E 029°43'0 0.0
2017-Feb-20 17:33N 60°00' E 029°43'0 0.0
2017-Feb-20 16:29N 60°00' E 029°43'0 0.0
2017-Feb-20 15:33N 60°00' E 029°43'0 0.0
2017-Feb-20 14:30N 60°00' E 029°43'0 0.0
2017-Feb-20 13:32N 60°00' E 029°43'0 0.0
2017-Feb-20 10:03N 60°00' E 029°43'0 0.0
2017-Feb-20 08:26N 60°00' E 029°43'0 0.0
2017-Feb-20 07:33N 60°00' E 029°43'0 0.0
2017-Feb-20 06:28N 60°00' E 029°43'0 0.0
2017-Feb-20 05:14N 60°00' E 029°43'0 0.0
2017-Feb-20 04:30N 60°00' E 029°43'0 0.0
2017-Feb-20 03:33N 60°00' E 029°43'0 0.0
2017-Feb-19 07:17N 60°00' E 029°43'0 0.0
2017-Feb-19 06:27N 60°00' E 029°43'0 0.0
2017-Feb-19 05:32N 60°00' E 029°43'0 0.0
2017-Feb-18 22:29N 60°00' E 029°43'0 0.0
2017-Feb-18 21:07N 60°00' E 029°43'0 0.0
2017-Feb-18 20:29N 60°00' E 029°43'0 0.0
2017-Feb-18 18:29N 60°00' E 029°43'0 0.0
2017-Feb-18 17:33N 60°00' E 029°43'0 0.0
2017-Feb-18 16:29N 60°00' E 029°43'0 0.0
2017-Feb-18 15:33N 60°00' E 029°43'0 0.0
2017-Feb-18 14:29N 60°00' E 029°43'0 0.0
2017-Feb-18 13:33N 60°00' E 029°43'0 0.0
2017-Feb-18 12:21N 60°00' E 029°43'0 0.0
2017-Feb-18 11:31N 60°00' E 029°43'0 0.0
2017-Feb-18 08:29N 60°00' E 029°43'  

Dump ship's entire track history